Time;durP1;ratioP1;P1;durP2;ratioP2;P2;SDS_P1;SDS_P2;PMS_P1;PMS_P2;Temp;Humidity;BMP_temperature;BMP_pressure;BME280_temperature;BME280_humidity;BME280_pressure;Samples;Min_cycle;Max_cycle;Signal;HPM_P1;HPM_P2
2022/07/01 00:00:04;;;;;;;;;0.67;0.67;;;;;;;;5095537;27;45507;-74
2022/07/01 00:02:29;;;;;;;;;1.00;0.00;;;;;;;;5103635;27;45385;-74
2022/07/01 00:04:54;;;;;;;;;1.00;1.00;;;;;;;;5094750;27;46352;-75
2022/07/01 00:07:20;;;;;;;;;0.00;0.00;;;;;;;;5096787;27;45335;-74
2022/07/01 00:09:45;;;;;;;;;0.33;0.33;;;;;;;;5094166;27;49144;-74
2022/07/01 00:12:10;;;;;;;;;0.00;0.00;;;;;;;;5094441;27;45529;-73
2022/07/01 00:14:35;;;;;;;;;0.33;0.33;;;;;;;;5095145;27;46043;-74
2022/07/01 00:17:01;;;;;;;;;1.00;1.00;;;;;;;;5093928;27;45597;-74
2022/07/01 00:19:26;;;;;;;;;1.00;1.00;;;;;;;;5098032;27;45593;-74
2022/07/01 00:21:51;;;;;;;;;0.00;0.00;;;;;;;;5093609;27;45387;-74
2022/07/01 00:24:17;;;;;;;;;0.00;0.00;;;;;;;;5095035;27;45547;-74
2022/07/01 00:26:42;;;;;;;;;0.67;0.67;;;;;;;;5093339;27;45374;-74
2022/07/01 00:29:07;;;;;;;;;1.67;1.00;;;;;;;;5093725;27;45373;-74
2022/07/01 00:31:33;;;;;;;;;0.33;0.33;;;;;;;;5097051;27;45477;-73
2022/07/01 00:33:58;;;;;;;;;0.33;0.33;;;;;;;;5094578;27;46367;-74
2022/07/01 00:36:23;;;;;;;;;0.00;0.00;;;;;;;;5094766;27;45617;-74
2022/07/01 00:38:49;;;;;;;;;0.00;0.00;;;;;;;;5093966;27;45403;-74
2022/07/01 00:41:14;;;;;;;;;0.00;0.00;;;;;;;;5093717;27;45479;-74
2022/07/01 00:43:39;;;;;;;;;1.67;0.00;;;;;;;;5095547;27;45475;-74
2022/07/01 00:46:05;;;;;;;;;0.00;0.00;;;;;;;;5095015;27;45860;-74
2022/07/01 00:48:32;;;;;;;;;1.00;1.00;;;;;;;;5093568;27;45405;-74
2022/07/01 00:50:57;;;;;;;;;2.00;1.00;;;;;;;;5094768;27;45512;-73
2022/07/01 00:53:22;;;;;;;;;0.00;0.00;;;;;;;;5093150;27;46370;-74
2022/07/01 00:55:48;;;;;;;;;0.00;0.00;;;;;;;;5095101;27;45315;-74
2022/07/01 00:58:13;;;;;;;;;0.00;0.00;;;;;;;;5094205;27;45786;-74
2022/07/01 01:00:38;;;;;;;;;2.00;0.00;;;;;;;;5093532;27;45449;-74
2022/07/01 01:03:05;;;;;;;;;1.00;1.00;;;;;;;;5102488;27;45299;-74
2022/07/01 01:05:30;;;;;;;;;0.50;0.50;;;;;;;;5092748;27;45413;-74
2022/07/01 01:07:55;;;;;;;;;1.00;1.00;;;;;;;;5093595;27;45325;-74
2022/07/01 01:10:22;;;;;;;;;1.33;0.67;;;;;;;;5096438;27;45481;-74
2022/07/01 01:12:49;;;;;;;;;0.67;0.67;;;;;;;;5093225;27;45490;-74
2022/07/01 01:15:18;;;;;;;;;0.00;0.00;;;;;;;;5092751;27;45468;-74
2022/07/01 01:17:43;;;;;;;;;1.00;0.00;;;;;;;;5093319;27;45258;-74
2022/07/01 01:20:08;;;;;;;;;1.00;0.00;;;;;;;;5092938;27;51063;-74
2022/07/01 01:22:34;;;;;;;;;0.00;0.00;;;;;;;;5095099;27;45555;-74
2022/07/01 01:24:59;;;;;;;;;1.00;0.00;;;;;;;;5086941;27;45389;-74
2022/07/01 01:27:24;;;;;;;;;1.00;1.00;;;;;;;;5094447;27;45349;-74
2022/07/01 01:29:49;;;;;;;;;0.00;0.00;;;;;;;;5092812;27;45780;-74
2022/07/01 01:32:15;;;;;;;;;0.00;0.00;;;;;;;;5094380;27;45614;-74
2022/07/01 01:34:40;;;;;;;;;0.00;0.00;;;;;;;;5094918;27;45245;-74
2022/07/01 01:37:06;;;;;;;;;0.00;0.00;;;;;;;;5093871;27;45227;-74
2022/07/01 01:39:31;;;;;;;;;0.33;0.33;;;;;;;;5091865;27;45526;-74
2022/07/01 01:41:57;;;;;;;;;0.00;0.00;;;;;;;;5092518;27;46100;-74
2022/07/01 01:44:22;;;;;;;;;0.00;0.00;;;;;;;;5093999;27;45611;-74
2022/07/01 01:46:47;;;;;;;;;0.00;0.00;;;;;;;;5095068;27;45317;-73
2022/07/01 01:49:12;;;;;;;;;0.67;0.67;;;;;;;;5096153;27;45452;-74
2022/07/01 01:51:38;;;;;;;;;1.00;1.00;;;;;;;;5093714;27;46058;-74
2022/07/01 01:54:03;;;;;;;;;0.00;0.00;;;;;;;;5092650;27;45484;-74
2022/07/01 01:56:29;;;;;;;;;0.00;0.00;;;;;;;;5094506;27;45605;-74
2022/07/01 01:58:55;;;;;;;;;0.00;0.00;;;;;;;;5091962;27;45519;-74
2022/07/01 02:01:20;;;;;;;;;0.00;0.00;;;;;;;;5095446;27;46466;-74
2022/07/01 02:03:46;;;;;;;;;1.00;1.00;;;;;;;;5094487;27;45385;-74
2022/07/01 02:06:13;;;;;;;;;0.00;0.00;;;;;;;;5092618;27;45400;-74
2022/07/01 02:08:39;;;;;;;;;0.00;0.00;;;;;;;;5092530;27;45472;-74
2022/07/01 02:11:05;;;;;;;;;1.00;1.00;;;;;;;;5093470;27;45309;-74
2022/07/01 02:13:30;;;;;;;;;0.33;0.33;;;;;;;;5095853;27;45373;-74
2022/07/01 02:15:56;;;;;;;;;0.00;0.00;;;;;;;;5092065;27;45951;-74
2022/07/01 02:18:21;;;;;;;;;1.33;0.33;;;;;;;;5093413;27;45450;-73
2022/07/01 02:20:46;;;;;;;;;0.00;0.00;;;;;;;;5093957;27;45452;-74
2022/07/01 02:23:12;;;;;;;;;0.00;0.00;;;;;;;;5092220;27;45400;-74
2022/07/01 02:25:37;;;;;;;;;0.00;0.00;;;;;;;;5094501;27;45320;-75
2022/07/01 02:28:02;;;;;;;;;0.00;0.00;;;;;;;;5093492;27;45571;-73
2022/07/01 02:30:28;;;;;;;;;0.00;0.00;;;;;;;;5091379;27;45740;-74
2022/07/01 02:32:53;;;;;;;;;0.00;0.00;;;;;;;;5092284;27;45311;-74
2022/07/01 02:35:19;;;;;;;;;0.00;0.00;;;;;;;;5091967;27;45340;-74
2022/07/01 02:37:44;;;;;;;;;0.00;0.00;;;;;;;;5093422;27;45365;-74
2022/07/01 02:40:09;;;;;;;;;2.00;0.00;;;;;;;;5095533;27;45600;-74
2022/07/01 02:42:35;;;;;;;;;0.33;0.33;;;;;;;;5091535;27;45377;-74
2022/07/01 02:45:01;;;;;;;;;0.00;0.00;;;;;;;;5091524;27;45362;-74
2022/07/01 02:47:30;;;;;;;;;0.00;0.00;;;;;;;;5091924;27;45567;-74
2022/07/01 02:49:55;;;;;;;;;0.00;0.00;;;;;;;;5094058;27;46733;-74
2022/07/01 02:52:21;;;;;;;;;1.00;1.00;;;;;;;;5099084;27;45589;-74
2022/07/01 02:54:46;;;;;;;;;0.00;0.00;;;;;;;;5095613;27;45471;-74
2022/07/01 02:57:11;;;;;;;;;0.00;0.00;;;;;;;;5094932;27;45534;-74
2022/07/01 02:59:37;;;;;;;;;0.00;0.00;;;;;;;;5095325;27;45488;-74
2022/07/01 03:02:02;;;;;;;;;0.00;0.00;;;;;;;;5104794;27;45824;-74
2022/07/01 03:04:27;;;;;;;;;0.00;0.00;;;;;;;;5099096;27;45492;-74
2022/07/01 03:06:52;;;;;;;;;0.00;0.00;;;;;;;;5094929;27;45540;-74
2022/07/01 03:09:18;;;;;;;;;2.00;0.00;;;;;;;;5096846;27;46379;-74
2022/07/01 03:11:43;;;;;;;;;0.00;0.00;;;;;;;;5095171;27;45352;-74
2022/07/01 03:14:08;;;;;;;;;0.00;0.00;;;;;;;;5097548;27;45458;-75
2022/07/01 03:16:33;;;;;;;;;0.00;0.00;;;;;;;;5097820;27;45447;-74
2022/07/01 03:18:58;;;;;;;;;0.00;0.00;;;;;;;;5095741;27;46503;-74
2022/07/01 03:21:24;;;;;;;;;1.00;1.00;;;;;;;;5094472;27;45404;-74
2022/07/01 03:23:49;;;;;;;;;1.00;1.00;;;;;;;;5094931;27;45365;-74
2022/07/01 03:26:14;;;;;;;;;1.00;1.00;;;;;;;;5095116;27;45500;-74
2022/07/01 03:28:40;;;;;;;;;0.00;0.00;;;;;;;;5096487;27;46459;-74
2022/07/01 03:31:05;;;;;;;;;0.33;0.33;;;;;;;;5097668;27;45399;-74
2022/07/01 03:33:30;;;;;;;;;0.33;0.00;;;;;;;;5096608;27;45361;-74
2022/07/01 03:35:55;;;;;;;;;0.00;0.00;;;;;;;;5094893;27;45439;-74
2022/07/01 03:38:20;;;;;;;;;0.00;0.00;;;;;;;;5094516;27;46160;-73
2022/07/01 03:40:46;;;;;;;;;0.00;0.00;;;;;;;;5096625;27;45610;-74
2022/07/01 03:43:11;;;;;;;;;2.67;0.00;;;;;;;;5095879;27;45378;-73
2022/07/01 03:45:36;;;;;;;;;0.00;0.00;;;;;;;;5094272;27;48981;-74
2022/07/01 03:48:02;;;;;;;;;0.00;0.00;;;;;;;;5094591;27;46393;-74
2022/07/01 03:50:27;;;;;;;;;0.00;0.00;;;;;;;;5094287;27;45433;-74
2022/07/01 03:54:29;;;;;;;;;1.00;1.00;;;;;;;;5095695;27;45353;-74
2022/07/01 03:55:38;;;;;;;;;1.00;0.00;;;;;;;;5094354;27;45373;-74
2022/07/01 03:58:03;;;;;;;;;1.00;1.00;;;;;;;;5096446;27;46608;-74
2022/07/01 04:00:32;;;;;;;;;1.00;0.33;;;;;;;;5094311;27;45362;-74
2022/07/01 04:02:58;;;;;;;;;0.00;0.00;;;;;;;;5102637;27;45356;-73
2022/07/01 04:05:23;;;;;;;;;0.00;0.00;;;;;;;;5096203;27;45304;-74
2022/07/01 04:07:48;;;;;;;;;2.00;0.00;;;;;;;;5095604;27;45643;-74
2022/07/01 04:10:13;;;;;;;;;1.00;1.00;;;;;;;;5096797;27;45472;-74
2022/07/01 04:12:38;;;;;;;;;0.00;0.00;;;;;;;;5095168;27;45467;-74
2022/07/01 04:15:04;;;;;;;;;0.00;0.00;;;;;;;;5095949;27;45331;-74
2022/07/01 04:17:29;;;;;;;;;0.00;0.00;;;;;;;;5093878;27;45743;-74
2022/07/01 04:19:54;;;;;;;;;0.00;0.00;;;;;;;;5095467;27;45756;-74
2022/07/01 04:22:38;;;;;;;;;0.00;0.00;;;;;;;;5097776;27;45333;-74
2022/07/01 04:25:03;;;;;;;;;0.00;0.00;;;;;;;;5096581;27;45388;-74
2022/07/01 04:27:31;;;;;;;;;0.00;0.00;;;;;;;;5093319;27;46412;-74
2022/07/01 04:29:56;;;;;;;;;1.33;1.00;;;;;;;;5093741;27;45303;-74
2022/07/01 04:32:22;;;;;;;;;0.00;0.00;;;;;;;;5094031;27;45448;-74
2022/07/01 04:34:47;;;;;;;;;0.33;0.00;;;;;;;;5095895;27;45464;-74
2022/07/01 04:37:12;;;;;;;;;0.33;0.00;;;;;;;;5095377;27;46202;-74
2022/07/01 04:39:38;;;;;;;;;0.00;0.00;;;;;;;;5093146;27;45469;-74
2022/07/01 04:42:03;;;;;;;;;0.00;0.00;;;;;;;;5094154;27;45464;-74
2022/07/01 04:44:33;;;;;;;;;0.00;0.00;;;;;;;;5093755;27;45464;-74
2022/07/01 04:46:59;;;;;;;;;0.00;0.00;;;;;;;;5089438;27;45540;-74
2022/07/01 04:49:25;;;;;;;;;0.00;0.00;;;;;;;;5097256;27;45396;-73
2022/07/01 04:51:50;;;;;;;;;1.00;0.00;;;;;;;;5093391;27;45450;-74
2022/07/01 04:54:15;;;;;;;;;0.00;0.00;;;;;;;;5093538;27;45359;-74
2022/07/01 04:56:41;;;;;;;;;0.00;0.00;;;;;;;;5092479;27;47175;-73
2022/07/01 04:59:06;;;;;;;;;0.00;0.00;;;;;;;;5093847;27;45635;-73
2022/07/01 05:01:31;;;;;;;;;0.00;0.00;;;;;;;;5103851;27;45445;-74
2022/07/01 05:03:57;;;;;;;;;0.00;0.00;;;;;;;;5096052;27;45469;-74
2022/07/01 05:06:22;;;;;;;;;0.67;0.67;;;;;;;;5094390;27;46505;-73
2022/07/01 05:08:48;;;;;;;;;0.00;0.00;;;;;;;;5095863;27;45515;-73
2022/07/01 05:11:13;;;;;;;;;0.00;0.00;;;;;;;;5093026;27;45480;-74
2022/07/01 05:13:38;;;;;;;;;0.00;0.00;;;;;;;;5095365;27;45310;-74
2022/07/01 05:16:04;;;;;;;;;0.00;0.00;;;;;;;;5094216;27;45595;-74
2022/07/01 05:23:57;;;;;;;;;0.00;0.00;;;;;;;;5093065;27;45479;-74
2022/07/01 05:26:22;;;;;;;;;0.00;0.00;;;;;;;;5092357;27;46962;-74
2022/07/01 05:28:47;;;;;;;;;0.00;0.00;;;;;;;;5094864;27;45296;-73
2022/07/01 05:31:13;;;;;;;;;0.00;0.00;;;;;;;;5094714;27;45793;-74
2022/07/01 05:33:38;;;;;;;;;0.67;0.67;;;;;;;;5093007;27;45602;-73
2022/07/01 05:36:03;;;;;;;;;1.00;1.00;;;;;;;;5092814;27;46653;-73
2022/07/01 05:38:29;;;;;;;;;0.00;0.00;;;;;;;;5092833;27;45396;-74
2022/07/01 05:40:54;;;;;;;;;0.00;0.00;;;;;;;;5093305;27;45578;-74
2022/07/01 05:43:19;;;;;;;;;0.00;0.00;;;;;;;;5095727;27;45357;-74
2022/07/01 05:45:45;;;;;;;;;2.00;0.00;;;;;;;;5094813;27;45377;-74
2022/07/01 05:48:10;;;;;;;;;0.00;0.00;;;;;;;;5092611;27;45370;-74
2022/07/01 05:50:35;;;;;;;;;0.00;0.00;;;;;;;;5092540;27;45444;-74
2022/07/01 05:53:01;;;;;;;;;1.00;1.00;;;;;;;;5092459;27;45345;-74
2022/07/01 05:55:26;;;;;;;;;1.00;1.00;;;;;;;;5095840;27;45409;-74
2022/07/01 05:57:51;;;;;;;;;1.67;0.00;;;;;;;;5091788;27;45593;-74
2022/07/01 06:00:17;;;;;;;;;0.00;0.00;;;;;;;;5092998;27;45449;-74
2022/07/01 06:02:42;;;;;;;;;0.00;0.00;;;;;;;;5101915;27;45519;-74
2022/07/01 06:05:07;;;;;;;;;0.00;0.00;;;;;;;;5092788;27;45591;-72
2022/07/01 06:07:32;;;;;;;;;0.00;0.00;;;;;;;;5095662;27;45444;-70
2022/07/01 06:09:57;;;;;;;;;0.00;0.00;;;;;;;;5092114;27;45490;-72
2022/07/01 06:12:23;;;;;;;;;0.00;0.00;;;;;;;;5092194;27;45329;-73
2022/07/01 06:14:48;;;;;;;;;0.00;0.00;;;;;;;;5092298;27;45315;-73
2022/07/01 06:17:13;;;;;;;;;0.00;0.00;;;;;;;;5091995;27;45233;-73
2022/07/01 06:19:39;;;;;;;;;0.67;0.00;;;;;;;;5094560;27;45285;-71
2022/07/01 06:22:04;;;;;;;;;0.00;0.00;;;;;;;;5094825;27;45417;-72
2022/07/01 06:24:29;;;;;;;;;0.00;0.00;;;;;;;;5090721;27;46387;-72
2022/07/01 06:26:55;;;;;;;;;0.67;0.67;;;;;;;;5092142;27;45328;-73
2022/07/01 06:29:20;;;;;;;;;1.00;0.00;;;;;;;;5091165;27;45397;-73
2022/07/01 06:31:45;;;;;;;;;2.00;0.00;;;;;;;;5094567;27;45254;-72
2022/07/01 06:34:10;;;;;;;;;0.00;0.00;;;;;;;;5102579;27;47353;-72
2022/07/01 06:36:35;;;;;;;;;0.00;0.00;;;;;;;;5094506;27;45473;-72
2022/07/01 06:39:01;;;;;;;;;0.00;0.00;;;;;;;;5091481;27;45551;-73
2022/07/01 06:41:28;;;;;;;;;0.33;0.00;;;;;;;;5093992;27;45530;-71
2022/07/01 06:43:54;;;;;;;;;1.00;1.00;;;;;;;;5093344;27;45532;-70
2022/07/01 06:46:19;;;;;;;;;1.00;1.00;;;;;;;;5095449;27;45420;-67
2022/07/01 06:48:45;;;;;;;;;2.67;0.00;;;;;;;;5091786;27;45332;-68
2022/07/01 06:51:10;;;;;;;;;0.00;0.00;;;;;;;;5091774;27;45355;-70
2022/07/01 06:53:35;;;;;;;;;2.00;0.00;;;;;;;;5091261;27;50855;-70
2022/07/01 06:56:01;;;;;;;;;0.00;0.00;;;;;;;;5091786;27;46118;-71
2022/07/01 06:58:26;;;;;;;;;0.00;0.00;;;;;;;;5095392;27;45238;-71
2022/07/01 07:00:51;;;;;;;;;3.00;1.00;;;;;;;;5093662;27;45932;-71
2022/07/01 07:03:16;;;;;;;;;0.00;0.00;;;;;;;;5098971;27;47173;-72
2022/07/01 07:05:42;;;;;;;;;0.67;0.67;;;;;;;;5091068;27;45505;-71
2022/07/01 07:08:07;;;;;;;;;0.00;0.00;;;;;;;;5092705;27;45344;-73
2022/07/01 07:10:32;;;;;;;;;2.00;1.33;;;;;;;;5094677;27;45278;-71
2022/07/01 07:12:57;;;;;;;;;0.67;0.67;;;;;;;;5091644;27;46528;-72
2022/07/01 07:15:22;;;;;;;;;1.00;0.00;;;;;;;;5091011;27;45552;-71
2022/07/01 07:17:48;;;;;;;;;0.33;0.33;;;;;;;;5091268;27;45497;-72
2022/07/01 07:20:13;;;;;;;;;0.00;0.00;;;;;;;;5091604;27;45398;-73
2022/07/01 07:22:38;;;;;;;;;0.00;0.00;;;;;;;;5093219;27;46452;-75
2022/07/01 07:25:03;;;;;;;;;0.00;0.00;;;;;;;;5095112;27;45518;-75
2022/07/01 07:27:29;;;;;;;;;0.33;0.00;;;;;;;;5091656;27;45397;-74
2022/07/01 07:29:54;;;;;;;;;0.00;0.00;;;;;;;;5091567;27;45658;-74
2022/07/01 07:32:19;;;;;;;;;0.00;0.00;;;;;;;;5091388;27;45585;-75
2022/07/01 07:34:44;;;;;;;;;0.00;0.00;;;;;;;;5092649;27;45472;-75
2022/07/01 07:37:10;;;;;;;;;1.00;0.00;;;;;;;;5093524;27;45436;-74
2022/07/01 07:39:35;;;;;;;;;0.00;0.00;;;;;;;;5096577;27;45555;-75
2022/07/01 07:42:00;;;;;;;;;0.00;0.00;;;;;;;;5094580;27;46084;-75
2022/07/01 07:44:25;;;;;;;;;0.00;0.00;;;;;;;;5096130;27;45530;-75
2022/07/01 07:46:50;;;;;;;;;1.67;0.00;;;;;;;;5096562;27;45374;-75
2022/07/01 07:49:16;;;;;;;;;0.33;0.00;;;;;;;;5096724;27;45452;-75
2022/07/01 07:51:41;;;;;;;;;1.00;0.00;;;;;;;;5093964;27;45461;-75
2022/07/01 07:54:06;;;;;;;;;0.00;0.00;;;;;;;;5096941;27;45365;-75
2022/07/01 07:56:31;;;;;;;;;0.00;0.00;;;;;;;;5094530;27;45494;-75
2022/07/01 07:58:57;;;;;;;;;0.00;0.00;;;;;;;;5095217;27;45487;-75
2022/07/01 08:01:22;;;;;;;;;0.00;0.00;;;;;;;;5103681;27;46351;-75
2022/07/01 08:03:47;;;;;;;;;1.00;1.00;;;;;;;;5097570;27;45695;-75
2022/07/01 08:06:12;;;;;;;;;0.00;0.00;;;;;;;;5094824;27;45397;-75
2022/07/01 08:08:38;;;;;;;;;0.00;0.00;;;;;;;;5096217;27;45702;-76
2022/07/01 08:11:03;;;;;;;;;3.00;1.00;;;;;;;;5094388;27;45601;-76
2022/07/01 08:13:28;;;;;;;;;0.00;0.00;;;;;;;;5098512;27;45301;-76
2022/07/01 08:15:54;;;;;;;;;0.00;0.00;;;;;;;;5094114;27;45439;-75
2022/07/01 08:18:19;;;;;;;;;0.00;0.00;;;;;;;;5093889;27;45389;-75
2022/07/01 08:20:45;;;;;;;;;2.00;0.00;;;;;;;;5096346;27;45703;-75
2022/07/01 08:23:11;;;;;;;;;0.00;0.00;;;;;;;;5094228;27;45630;-75
2022/07/01 08:25:36;;;;;;;;;0.00;0.00;;;;;;;;5097135;27;45369;-76
2022/07/01 08:28:02;;;;;;;;;1.00;0.00;;;;;;;;5094920;27;45460;-75
2022/07/01 08:30:27;;;;;;;;;0.00;0.00;;;;;;;;5093542;27;45418;-76
2022/07/01 08:32:52;;;;;;;;;0.00;0.00;;;;;;;;5093659;27;45549;-76
2022/07/01 08:35:17;;;;;;;;;1.00;0.00;;;;;;;;5094236;27;45314;-76
2022/07/01 08:37:42;;;;;;;;;0.00;0.00;;;;;;;;5096383;27;45439;-75
2022/07/01 08:40:08;;;;;;;;;0.67;0.67;;;;;;;;5095098;27;46269;-75
2022/07/01 08:42:33;;;;;;;;;0.00;0.00;;;;;;;;5093586;27;45408;-76
2022/07/01 08:44:58;;;;;;;;;1.33;0.00;;;;;;;;5093959;27;45279;-76
2022/07/01 08:47:23;;;;;;;;;0.00;0.00;;;;;;;;5093070;27;45350;-76
2022/07/01 08:49:49;;;;;;;;;0.00;0.00;;;;;;;;5095568;27;45329;-76
2022/07/01 08:52:14;;;;;;;;;0.33;0.33;;;;;;;;5099545;27;45458;-76
2022/07/01 08:54:40;;;;;;;;;0.00;0.00;;;;;;;;5097930;27;45467;-76
2022/07/01 08:57:07;;;;;;;;;0.00;0.00;;;;;;;;5093381;27;45485;-76
2022/07/01 08:59:32;;;;;;;;;0.00;0.00;;;;;;;;5093832;27;46366;-76
2022/07/01 09:02:01;;;;;;;;;0.00;0.00;;;;;;;;5102664;27;45396;-75
2022/07/01 09:04:27;;;;;;;;;0.00;0.00;;;;;;;;5097153;27;45495;-76
2022/07/01 09:06:57;;;;;;;;;0.00;0.00;;;;;;;;5095312;27;45359;-76
2022/07/01 09:09:22;;;;;;;;;1.00;1.00;;;;;;;;5093103;27;47969;-76
2022/07/01 09:11:53;;;;;;;;;0.00;0.00;;;;;;;;5094184;27;45480;-76
2022/07/01 09:14:18;;;;;;;;;0.00;0.00;;;;;;;;5093757;27;46328;-76
2022/07/01 09:16:45;;;;;;;;;0.00;0.00;;;;;;;;5095104;27;45375;-75
2022/07/01 09:19:11;;;;;;;;;0.00;0.00;;;;;;;;5094495;27;46450;-75
2022/07/01 09:21:37;;;;;;;;;0.00;0.00;;;;;;;;5092927;27;45408;-75
2022/07/01 09:24:03;;;;;;;;;0.00;0.00;;;;;;;;5094962;27;45544;-75
2022/07/01 09:26:28;;;;;;;;;0.00;0.00;;;;;;;;5093412;27;45411;-76
2022/07/01 09:28:55;;;;;;;;;0.00;0.00;;;;;;;;5093781;27;46164;-75
2022/07/01 09:31:20;;;;;;;;;0.00;0.00;;;;;;;;5095868;27;45350;-75
2022/07/01 09:33:45;;;;;;;;;0.00;0.00;;;;;;;;5092864;27;45456;-76
2022/07/01 09:36:15;;;;;;;;;0.00;0.00;;;;;;;;5093077;27;45201;-76
2022/07/01 09:38:45;;;;;;;;;1.00;0.00;;;;;;;;5092925;27;45619;-75
2022/07/01 09:41:11;;;;;;;;;0.33;0.33;;;;;;;;5093919;27;45357;-75
2022/07/01 09:43:37;;;;;;;;;0.00;0.00;;;;;;;;5095931;27;45399;-76
2022/07/01 09:46:03;;;;;;;;;0.00;0.00;;;;;;;;5093467;27;45351;-75
2022/07/01 09:48:34;;;;;;;;;1.67;0.00;;;;;;;;5092762;27;46685;-75
2022/07/01 09:51:00;;;;;;;;;0.00;0.00;;;;;;;;5092548;27;45278;-76
2022/07/01 09:53:26;;;;;;;;;0.00;0.00;;;;;;;;5093006;27;45484;-75
2022/07/01 09:55:51;;;;;;;;;0.00;0.00;;;;;;;;5094373;27;45286;-76
2022/07/01 09:58:16;;;;;;;;;2.00;0.00;;;;;;;;5096010;27;45587;-76
2022/07/01 10:00:42;;;;;;;;;0.00;0.00;;;;;;;;5091629;27;45388;-76
2022/07/01 10:03:07;;;;;;;;;0.00;0.00;;;;;;;;5094017;27;45334;-76
2022/07/01 10:06:01;;;;;;;;;0.00;0.00;;;;;;;;5093112;27;49119;-76
2022/07/01 10:08:33;;;;;;;;;1.00;0.00;;;;;;;;5081022;27;46435;-76
2022/07/01 10:11:16;;;;;;;;;0.00;0.00;;;;;;;;5093323;27;45528;-77
2022/07/01 10:13:42;;;;;;;;;0.00;0.00;;;;;;;;5092258;27;45394;-76
2022/07/01 10:16:08;;;;;;;;;0.00;0.00;;;;;;;;5093560;27;45569;-75
2022/07/01 10:18:33;;;;;;;;;0.00;0.00;;;;;;;;5091865;27;45337;-75
2022/07/01 10:20:58;;;;;;;;;0.00;0.00;;;;;;;;5094120;27;45370;-75
2022/07/01 10:23:45;;;;;;;;;0.00;0.00;;;;;;;;5092913;27;45366;-75
2022/07/01 10:26:11;;;;;;;;;0.00;0.00;;;;;;;;5089895;27;45560;-76
2022/07/01 10:28:41;;;;;;;;;0.00;0.00;;;;;;;;5100731;27;46458;-75
2022/07/01 10:31:11;;;;;;;;;0.00;0.00;;;;;;;;5094775;27;45507;-75
2022/07/01 10:33:46;;;;;;;;;2.00;0.00;;;;;;;;5092046;27;45385;-75
2022/07/01 10:36:12;;;;;;;;;0.00;0.00;;;;;;;;5092163;27;45531;-75
2022/07/01 10:38:58;;;;;;;;;1.00;0.00;;;;;;;;5091702;27;45524;-75
2022/07/01 10:41:24;;;;;;;;;0.00;0.00;;;;;;;;5074894;27;45416;-76
2022/07/01 10:43:49;;;;;;;;;0.00;0.00;;;;;;;;5093445;27;45473;-76
2022/07/01 10:46:33;;;;;;;;;0.00;0.00;;;;;;;;5095606;27;45425;-76
2022/07/01 10:48:59;;;;;;;;;0.00;0.00;;;;;;;;5093631;27;45425;-75
2022/07/01 10:51:43;;;;;;;;;0.33;0.00;;;;;;;;5092061;27;46293;-76
2022/07/01 10:54:08;;;;;;;;;0.00;0.00;;;;;;;;5092063;27;45620;-76
2022/07/01 10:56:40;;;;;;;;;0.00;0.00;;;;;;;;5091600;27;45625;-75
2022/07/01 10:59:05;;;;;;;;;0.00;0.00;;;;;;;;5088396;27;45339;-76
2022/07/01 11:01:31;;;;;;;;;0.00;0.00;;;;;;;;5103083;27;45381;-76
2022/07/01 11:03:56;;;;;;;;;0.00;0.00;;;;;;;;5093489;27;45577;-76
2022/07/01 11:06:21;;;;;;;;;0.00;0.00;;;;;;;;5091944;27;45410;-76
2022/07/01 11:08:49;;;;;;;;;0.00;0.00;;;;;;;;5091399;27;46380;-76
2022/07/01 11:11:14;;;;;;;;;0.33;0.00;;;;;;;;5093412;27;45424;-76
2022/07/01 11:13:40;;;;;;;;;1.33;1.00;;;;;;;;5098108;27;45395;-76
2022/07/01 11:16:05;;;;;;;;;0.00;0.00;;;;;;;;5097572;27;45462;-75
2022/07/01 11:18:30;;;;;;;;;0.00;0.00;;;;;;;;5095117;27;46289;-75
2022/07/01 11:21:06;;;;;;;;;0.00;0.00;;;;;;;;5097333;27;45373;-75
2022/07/01 11:23:31;;;;;;;;;0.00;0.00;;;;;;;;5095591;27;45351;-75
2022/07/01 11:25:56;;;;;;;;;0.00;0.00;;;;;;;;5100256;27;45522;-76
2022/07/01 11:28:21;;;;;;;;;0.00;0.00;;;;;;;;5097374;27;46481;-75
2022/07/01 11:30:46;;;;;;;;;1.00;1.00;;;;;;;;5095138;27;45516;-75
2022/07/01 11:33:11;;;;;;;;;0.33;0.00;;;;;;;;5094781;27;45468;-76
2022/07/01 11:41:08;;;;;;;;;0.00;0.00;;;;;;;;5090235;27;45445;-75
2022/07/01 11:43:35;;;;;;;;;2.00;0.00;;;;;;;;5098213;27;45406;-75
2022/07/01 11:46:01;;;;;;;;;0.00;0.00;;;;;;;;5095292;27;45251;-75
2022/07/01 11:48:34;;;;;;;;;0.00;0.00;;;;;;;;5094388;27;45964;-75
2022/07/01 11:51:00;;;;;;;;;0.00;0.00;;;;;;;;5094650;27;45224;-75
2022/07/01 11:53:26;;;;;;;;;0.00;0.00;;;;;;;;5094776;27;45285;-76
2022/07/01 11:55:51;;;;;;;;;0.00;0.00;;;;;;;;5096080;27;45422;-76
2022/07/01 11:58:17;;;;;;;;;0.00;0.00;;;;;;;;5096316;27;46553;-75
2022/07/01 12:00:42;;;;;;;;;0.00;0.00;;;;;;;;5095515;27;45433;-75
2022/07/01 12:03:08;;;;;;;;;0.00;0.00;;;;;;;;5103861;27;45583;-75
2022/07/01 12:05:34;;;;;;;;;1.00;0.33;;;;;;;;5094657;27;45490;-75
2022/07/01 12:07:59;;;;;;;;;0.00;0.00;;;;;;;;5095058;27;46742;-76
2022/07/01 12:10:25;;;;;;;;;0.00;0.00;;;;;;;;5097114;27;45452;-76
2022/07/01 12:12:50;;;;;;;;;0.00;0.00;;;;;;;;5094148;27;45559;-76
2022/07/01 12:15:16;;;;;;;;;0.00;0.00;;;;;;;;5094247;27;45442;-76
2022/07/01 12:17:41;;;;;;;;;0.00;0.00;;;;;;;;5093861;27;45513;-75
2022/07/01 12:20:07;;;;;;;;;0.00;0.00;;;;;;;;5096413;27;45635;-75
2022/07/01 12:22:32;;;;;;;;;1.00;0.00;;;;;;;;5097121;27;45452;-75
2022/07/01 12:25:11;;;;;;;;;0.00;0.00;;;;;;;;5093874;27;45423;-75
2022/07/01 12:27:38;;;;;;;;;0.00;0.00;;;;;;;;5094006;27;45476;-76
2022/07/01 12:30:05;;;;;;;;;0.00;0.00;;;;;;;;5093902;27;45599;-76
2022/07/01 12:32:31;;;;;;;;;0.00;0.00;;;;;;;;5094128;27;45589;-76
2022/07/01 12:34:58;;;;;;;;;0.00;0.00;;;;;;;;5095044;27;45655;-76
2022/07/01 12:37:27;;;;;;;;;0.00;0.00;;;;;;;;5096570;27;45513;-76
2022/07/01 12:39:58;;;;;;;;;1.00;0.00;;;;;;;;5095495;27;45302;-75
2022/07/01 12:42:33;;;;;;;;;0.00;0.00;;;;;;;;5093296;27;45453;-75
2022/07/01 12:45:00;;;;;;;;;0.00;0.00;;;;;;;;5093440;27;45279;-75
2022/07/01 12:47:35;;;;;;;;;0.00;0.00;;;;;;;;5093322;27;46728;-75
2022/07/01 12:50:10;;;;;;;;;0.00;0.00;;;;;;;;5089186;27;45747;-75
2022/07/01 12:52:36;;;;;;;;;0.67;0.00;;;;;;;;5093181;27;45403;-75
2022/07/01 12:55:12;;;;;;;;;0.00;0.00;;;;;;;;5093870;27;45365;-75
2022/07/01 12:57:37;;;;;;;;;0.00;0.00;;;;;;;;5094241;27;47526;-76
2022/07/01 13:00:02;;;;;;;;;1.00;0.67;;;;;;;;5093945;27;45394;-76
2022/07/01 13:02:28;;;;;;;;;0.00;0.00;;;;;;;;5095687;27;45824;-76
2022/07/01 13:04:53;;;;;;;;;0.00;0.00;;;;;;;;5095462;27;45493;-75
2022/07/01 13:07:18;;;;;;;;;0.67;0.67;;;;;;;;5097175;27;46685;-75
2022/07/01 13:09:43;;;;;;;;;0.00;0.00;;;;;;;;5092731;27;45421;-75
2022/07/01 13:12:08;;;;;;;;;0.00;0.00;;;;;;;;5093436;27;45831;-76
2022/07/01 13:14:34;;;;;;;;;0.00;0.00;;;;;;;;5094422;27;45583;-75
2022/07/01 13:16:59;;;;;;;;;1.00;0.00;;;;;;;;5093384;27;45570;-75
2022/07/01 13:19:24;;;;;;;;;0.00;0.00;;;;;;;;5096173;27;45383;-75
2022/07/01 13:21:49;;;;;;;;;2.00;0.67;;;;;;;;5094269;27;45687;-75
2022/07/01 13:24:15;;;;;;;;;0.00;0.00;;;;;;;;5092650;27;45358;-77
2022/07/01 13:26:40;;;;;;;;;0.00;0.00;;;;;;;;5095353;27;46019;-75
2022/07/01 13:29:06;;;;;;;;;0.00;0.00;;;;;;;;5092891;27;45520;-75
2022/07/01 13:31:31;;;;;;;;;0.00;0.00;;;;;;;;5097183;27;45556;-75
2022/07/01 13:33:56;;;;;;;;;0.00;0.00;;;;;;;;5094936;27;45364;-75
2022/07/01 13:36:21;;;;;;;;;1.00;0.00;;;;;;;;5092547;27;45532;-75
2022/07/01 13:38:48;;;;;;;;;0.00;0.00;;;;;;;;5092467;27;45420;-75
2022/07/01 13:41:13;;;;;;;;;0.00;0.00;;;;;;;;5092662;27;45515;-75
2022/07/01 13:43:39;;;;;;;;;0.67;0.67;;;;;;;;5095462;27;45487;-76
2022/07/01 13:46:04;;;;;;;;;0.00;0.00;;;;;;;;5096105;27;45416;-76
2022/07/01 13:48:29;;;;;;;;;0.00;0.00;;;;;;;;5092335;27;45398;-76
2022/07/01 13:50:54;;;;;;;;;0.00;0.00;;;;;;;;5092721;27;45898;-76
2022/07/01 13:53:19;;;;;;;;;0.00;0.00;;;;;;;;5092794;27;45475;-76
2022/07/01 13:55:45;;;;;;;;;0.00;0.00;;;;;;;;5094754;27;46341;-76
2022/07/01 13:58:10;;;;;;;;;1.00;0.00;;;;;;;;5094039;27;45325;-76
2022/07/01 14:00:35;;;;;;;;;0.67;0.67;;;;;;;;5093342;27;45466;-75
2022/07/01 14:03:00;;;;;;;;;0.00;0.00;;;;;;;;5094673;27;45432;-76
2022/07/01 14:05:25;;;;;;;;;0.67;0.67;;;;;;;;5092345;27;45523;-76
2022/07/01 14:07:51;;;;;;;;;3.00;1.00;;;;;;;;5093938;27;45476;-76
2022/07/01 14:10:16;;;;;;;;;0.00;0.00;;;;;;;;5096321;27;45267;-76
2022/07/01 14:12:42;;;;;;;;;0.00;0.00;;;;;;;;5092686;27;45460;-76
2022/07/01 14:15:07;;;;;;;;;0.00;0.00;;;;;;;;5092159;27;47180;-76
2022/07/01 14:17:33;;;;;;;;;0.00;0.00;;;;;;;;5093948;27;45453;-75
2022/07/01 14:19:59;;;;;;;;;0.00;0.00;;;;;;;;5092767;27;45475;-75
2022/07/01 14:22:25;;;;;;;;;0.00;0.00;;;;;;;;5094640;27;45588;-76
2022/07/01 14:24:50;;;;;;;;;0.00;0.00;;;;;;;;5093219;27;45478;-75
2022/07/01 14:27:16;;;;;;;;;0.00;0.00;;;;;;;;5091695;27;45307;-76
2022/07/01 14:29:41;;;;;;;;;0.00;0.00;;;;;;;;5092036;27;45486;-76
2022/07/01 14:32:06;;;;;;;;;0.00;0.00;;;;;;;;5092123;27;45414;-75
2022/07/01 14:34:31;;;;;;;;;0.00;0.00;;;;;;;;5096355;27;46479;-77
2022/07/01 14:36:57;;;;;;;;;0.00;0.00;;;;;;;;5091299;27;45430;-75
2022/07/01 14:39:22;;;;;;;;;1.00;0.67;;;;;;;;5091676;27;45436;-75
2022/07/01 14:41:49;;;;;;;;;1.33;0.00;;;;;;;;5091754;27;45473;-76
2022/07/01 14:44:15;;;;;;;;;0.00;0.00;;;;;;;;5091806;27;46285;-76
2022/07/01 14:46:40;;;;;;;;;1.00;0.00;;;;;;;;5096316;27;45299;-76